Time;durP1;ratioP1;P1;durP2;ratioP2;P2;SDS_P1;SDS_P2;PMS_P1;PMS_P2;Temp;Humidity;BMP_temperature;BMP_pressure;BME280_temperature;BME280_humidity;BME280_pressure;Samples;Min_cycle;Max_cycle;Signal;HPM_P1;HPM_P2
2023/09/12 00:01:32;;;;;;;17.97;15.83;;;;;17.90;96706.00;;;;5051863;28;20228;-67
2023/09/12 00:04:21;;;;;;;17.83;16.03;;;;;18.20;96701.00;;;;5050647;28;20282;-66
2023/09/12 00:07:11;;;;;;;19.07;16.93;;;;;18.30;96705.00;;;;5048357;28;20193;-67
2023/09/12 00:10:01;;;;;;;18.60;14.87;;;;;18.20;96700.00;;;;5048820;28;20628;-67
2023/09/12 00:12:50;;;;;;;17.90;16.10;;;;;18.30;96694.00;;;;5046900;28;20231;-67
2023/09/12 00:15:40;;;;;;;17.23;15.47;;;;;18.60;96696.00;;;;5047673;28;20219;-67
2023/09/12 00:18:29;;;;;;;17.23;15.43;;;;;18.60;96690.00;;;;5049006;28;20707;-67
2023/09/12 00:21:18;;;;;;;19.10;14.27;;;;;18.50;96692.00;;;;5048245;28;20238;-67
2023/09/12 00:24:08;;;;;;;17.30;14.20;;;;;18.10;96691.00;;;;5048103;28;20386;-67
2023/09/12 00:26:57;;;;;;;19.03;14.50;;;;;17.90;96681.00;;;;5047576;28;20671;-67
2023/09/12 00:29:46;;;;;;;17.27;14.17;;;;;17.80;96674.00;;;;5051857;28;20224;-67
2023/09/12 00:32:35;;;;;;;17.07;15.23;;;;;17.90;96674.00;;;;5050227;28;20208;-67
2023/09/12 00:35:24;;;;;;;18.30;15.93;;;;;17.60;96671.00;;;;5048402;28;20204;-67
2023/09/12 00:38:13;;;;;;;19.87;15.00;;;;;17.80;96666.00;;;;5050838;28;20216;-67
2023/09/12 00:41:04;;;;;;;17.50;15.00;;;;;17.80;96665.00;;;;5047578;28;20220;-67
2023/09/12 00:43:53;;;;;;;18.27;15.83;;;;;18.10;96670.00;;;;5046867;28;20205;-67
2023/09/12 00:46:42;;;;;;;17.83;15.90;;;;;18.00;96664.00;;;;5042065;28;20196;-67
2023/09/12 00:49:31;;;;;;;19.70;15.03;;;;;18.20;96663.00;;;;5036380;28;20209;-67
2023/09/12 00:52:21;;;;;;;22.63;17.20;;;;;18.30;96667.00;;;;5046783;28;20203;-67
2023/09/12 00:55:10;;;;;;;17.37;15.67;;;;;18.40;96668.00;;;;5047179;28;20200;-67
2023/09/12 00:58:01;;;;;;;17.57;14.63;;;;;18.10;96676.00;;;;5043509;28;21712;-67
2023/09/12 01:00:50;;;;;;;19.03;15.27;;;;;17.70;96662.00;;;;5059648;22;20240;-70
2023/09/12 01:03:39;;;;;;;17.60;14.77;;;;;17.50;96660.00;;;;5046434;28;20216;-69
2023/09/12 01:06:29;;;;;;;18.30;15.43;;;;;17.80;96673.00;;;;5045812;28;20206;-69
2023/09/12 01:09:18;;;;;;;16.40;14.77;;;;;17.60;96664.00;;;;5050371;28;20721;-69
2023/09/12 01:12:08;;;;;;;19.03;17.00;;;;;17.60;96663.00;;;;5047511;28;20224;-69
2023/09/12 01:14:58;;;;;;;19.50;16.97;;;;;17.50;96661.00;;;;5047800;28;20211;-69
2023/09/12 01:17:47;;;;;;;22.73;19.07;;;;;17.50;96664.00;;;;5046077;28;20227;-69
2023/09/12 01:20:37;;;;;;;18.73;16.40;;;;;17.50;96658.00;;;;5044119;28;20250;-69
2023/09/12 01:23:40;;;;;;;20.70;17.70;;;;;17.80;96661.00;;;;5049922;28;20200;-69
2023/09/12 01:26:37;;;;;;;19.90;16.03;;;;;17.90;96662.00;;;;5051605;28;20200;-69
2023/09/12 01:29:30;;;;;;;18.13;16.40;;;;;17.80;96662.00;;;;5047698;28;20208;-69
2023/09/12 01:32:20;;;;;;;18.07;16.13;;;;;17.70;96661.00;;;;5046620;28;20235;-69
2023/09/12 01:35:10;;;;;;;17.23;15.43;;;;;17.70;96654.00;;;;5048128;28;20246;-69
2023/09/12 01:37:59;;;;;;;16.60;15.00;;;;;17.40;96655.00;;;;5048074;28;20235;-69
2023/09/12 01:40:50;;;;;;;17.17;15.33;;;;;17.10;96660.00;;;;5051176;28;20225;-70
2023/09/12 01:43:39;;;;;;;17.73;15.93;;;;;17.10;96658.00;;;;5049556;28;20677;-69
2023/09/12 01:46:31;;;;;;;25.87;17.97;;;;;17.20;96667.00;;;;5047246;28;20200;-69
2023/09/12 01:49:22;;;;;;;17.83;15.67;;;;;17.10;96659.00;;;;5047765;28;20197;-69
2023/09/12 01:52:12;;;;;;;18.30;16.23;;;;;17.20;96660.00;;;;5047684;28;20220;-69
2023/09/12 01:55:01;;;;;;;20.20;18.00;;;;;17.30;96663.00;;;;5047924;28;20216;-69
2023/09/12 01:57:50;;;;;;;18.37;16.47;;;;;17.60;96668.00;;;;5045734;28;20239;-70
2023/09/12 02:00:40;;;;;;;19.90;17.73;;;;;17.80;96670.00;;;;5048457;28;20243;-70
2023/09/12 02:03:30;;;;;;;19.10;17.20;;;;;17.60;96678.00;;;;5047455;28;20201;-69
2023/09/12 02:06:19;;;;;;;17.30;15.50;;;;;17.30;96667.00;;;;5048908;28;20213;-70
2023/09/12 02:09:08;;;;;;;21.10;18.87;;;;;17.10;96673.00;;;;5045480;28;20286;-70
2023/09/12 02:11:57;;;;;;;19.03;17.07;;;;;17.10;96674.00;;;;5048093;28;20221;-70
2023/09/12 02:14:46;;;;;;;21.50;16.67;;;;;17.20;96672.00;;;;5049882;28;20238;-70
2023/09/12 02:17:35;;;;;;;21.37;17.47;;;;;17.20;96668.00;;;;5053085;28;20220;-70
2023/09/12 02:20:26;;;;;;;25.57;18.40;;;;;17.00;96673.00;;;;5051527;28;20529;-69
2023/09/12 02:23:15;;;;;;;21.23;17.17;;;;;16.60;96669.00;;;;5052095;28;20579;-70
2023/09/12 02:26:05;;;;;;;19.77;17.77;;;;;16.60;96673.00;;;;5052850;28;20227;-69
2023/09/12 02:28:54;;;;;;;18.73;16.73;;;;;16.60;96664.00;;;;5052189;28;20207;-70
2023/09/12 02:31:43;;;;;;;21.60;18.00;;;;;16.70;96669.00;;;;5052682;28;20227;-69
2023/09/12 02:34:32;;;;;;;23.97;18.17;;;;;17.10;96676.00;;;;5051342;28;20204;-69
2023/09/12 02:37:22;;;;;;;19.90;17.73;;;;;16.70;96667.00;;;;5052244;28;20227;-70
2023/09/12 02:40:14;;;;;;;19.87;17.77;;;;;16.80;96680.00;;;;5052630;28;20192;-70
2023/09/12 02:43:03;;;;;;;21.17;18.90;;;;;16.80;96667.00;;;;5053929;28;20395;-69
2023/09/12 02:45:52;;;;;;;21.37;19.23;;;;;17.50;96671.00;;;;5055806;28;20204;-70
2023/09/12 02:48:41;;;;;;;25.07;19.70;;;;;17.60;96669.00;;;;5051649;28;20217;-70
2023/09/12 02:51:30;;;;;;;20.33;18.17;;;;;17.30;96670.00;;;;5051985;28;20307;-70
2023/09/12 02:54:21;;;;;;;20.87;18.70;;;;;16.40;96668.00;;;;5048253;28;20205;-70
2023/09/12 02:57:10;;;;;;;21.93;18.43;;;;;16.50;96659.00;;;;5052799;28;20219;-70
2023/09/12 02:59:59;;;;;;;19.83;17.73;;;;;16.30;96663.00;;;;5056993;28;20212;-70
2023/09/12 03:02:48;;;;;;;19.27;17.17;;;;;16.40;96664.00;;;;5049833;28;20197;-70
2023/09/12 03:05:37;;;;;;;19.10;16.27;;;;;16.00;96654.00;;;;5050796;28;20661;-69
2023/09/12 03:08:26;;;;;;;20.60;18.40;;;;;16.50;96662.00;;;;5050898;28;20209;-70
2023/09/12 03:11:16;;;;;;;22.47;19.63;;;;;16.40;96658.00;;;;5047686;28;20224;-70
2023/09/12 03:14:06;;;;;;;20.87;18.70;;;;;16.20;96652.00;;;;5052614;28;20208;-70
2023/09/12 03:16:55;;;;;;;22.63;20.17;;;;;16.50;96663.00;;;;5052028;28;20212;-71
2023/09/12 03:19:44;;;;;;;22.77;20.37;;;;;16.50;96661.00;;;;5048368;28;20207;-69
2023/09/12 03:22:37;;;;;;;21.10;18.97;;;;;16.40;96659.00;;;;5050327;28;20212;-70
2023/09/12 03:25:26;;;;;;;26.70;19.30;;;;;16.40;96662.00;;;;5054738;28;20204;-70
2023/09/12 03:28:16;;;;;;;21.93;19.60;;;;;16.30;96658.00;;;;5050163;28;20669;-69
2023/09/12 03:31:07;;;;;;;21.93;19.60;;;;;16.50;96654.00;;;;5048483;28;20220;-70
2023/09/12 03:33:57;;;;;;;27.00;20.90;;;;;16.70;96651.00;;;;5051961;28;20211;-70
2023/09/12 03:36:46;;;;;;;23.17;19.60;;;;;16.60;96644.00;;;;5048903;28;20429;-70
2023/09/12 03:39:35;;;;;;;25.53;19.67;;;;;16.70;96655.00;;;;5051069;28;20258;-70
2023/09/12 03:42:24;;;;;;;21.33;18.47;;;;;16.60;96641.00;;;;5050525;28;20236;-70
2023/09/12 03:45:17;;;;;;;20.40;18.30;;;;;16.30;96648.00;;;;5048538;28;20636;-70
2023/09/12 03:48:06;;;;;;;21.23;19.17;;;;;16.10;96635.00;;;;5049326;28;20201;-69
2023/09/12 03:50:55;;;;;;;19.97;18.00;;;;;16.10;96638.00;;;;5044708;28;20236;-71
2023/09/12 03:53:45;;;;;;;20.50;17.77;;;;;15.70;96649.00;;;;5048887;28;20208;-71
2023/09/12 03:56:34;;;;;;;22.23;18.43;;;;;15.80;96651.00;;;;5050556;28;20212;-70
2023/09/12 03:59:23;;;;;;;24.13;19.17;;;;;15.80;96640.00;;;;5048436;28;20224;-69
2023/09/12 04:02:13;;;;;;;20.60;18.60;;;;;15.70;96648.00;;;;5044225;28;20239;-69
2023/09/12 04:05:03;;;;;;;23.23;20.67;;;;;15.90;96647.00;;;;5050018;28;20213;-70
2023/09/12 04:07:52;;;;;;;23.03;19.53;;;;;16.20;96660.00;;;;5048370;28;20212;-71
2023/09/12 04:10:41;;;;;;;22.40;19.80;;;;;16.40;96662.00;;;;5055009;28;20228;-70
2023/09/12 04:13:30;;;;;;;23.37;20.87;;;;;16.50;96664.00;;;;5048621;28;20208;-70
2023/09/12 04:16:19;;;;;;;25.00;21.20;;;;;16.50;96663.00;;;;5048861;28;20587;-70
2023/09/12 04:19:09;;;;;;;25.43;18.77;;;;;16.30;96666.00;;;;5042486;28;20216;-70
2023/09/12 04:21:59;;;;;;;23.43;18.03;;;;;16.30;96668.00;;;;5048892;28;20216;-69
2023/09/12 04:24:48;;;;;;;21.20;18.73;;;;;16.30;96674.00;;;;5053475;28;20200;-70
2023/09/12 04:27:37;;;;;;;20.63;18.37;;;;;16.50;96671.00;;;;5049751;28;20207;-70
2023/09/12 04:30:27;;;;;;;22.40;19.73;;;;;16.70;96678.00;;;;5050572;28;20220;-70
2023/09/12 04:33:16;;;;;;;24.23;19.23;;;;;17.00;96670.00;;;;5049206;28;20693;-70
2023/09/12 04:36:06;;;;;;;21.57;19.27;;;;;16.80;96673.00;;;;5046211;28;20212;-70
2023/09/12 04:38:55;;;;;;;25.27;18.77;;;;;16.80;96674.00;;;;5047331;28;20247;-71
2023/09/12 04:41:44;;;;;;;20.10;17.57;;;;;16.20;96665.00;;;;5046944;28;20234;-70
2023/09/12 04:44:36;;;;;;;20.20;18.17;;;;;15.90;96671.00;;;;5048746;28;20197;-69
2023/09/12 04:47:27;;;;;;;21.60;18.33;;;;;16.20;96666.00;;;;5049591;28;20219;-70
2023/09/12 04:50:16;;;;;;;21.30;18.00;;;;;16.30;96677.00;;;;5052608;28;20196;-70
2023/09/12 04:53:06;;;;;;;20.03;17.53;;;;;16.00;96673.00;;;;5048785;28;20628;-69
2023/09/12 04:55:55;;;;;;;23.33;18.17;;;;;16.20;96678.00;;;;5047480;28;20219;-70
2023/09/12 04:58:44;;;;;;;24.27;19.57;;;;;16.20;96678.00;;;;5048746;28;20224;-69
2023/09/12 05:01:34;;;;;;;27.40;18.80;;;;;16.40;96682.00;;;;5050082;28;20851;-69
2023/09/12 05:04:23;;;;;;;21.50;18.87;;;;;16.70;96676.00;;;;5046576;28;20205;-70
2023/09/12 05:07:12;;;;;;;20.03;17.20;;;;;16.60;96676.00;;;;5049600;28;20201;-70
2023/09/12 05:10:03;;;;;;;22.77;18.07;;;;;16.40;96675.00;;;;5052634;28;20211;-69
2023/09/12 05:12:53;;;;;;;20.13;16.90;;;;;16.20;96678.00;;;;5047481;28;20216;-70
2023/09/12 05:15:42;;;;;;;21.57;19.23;;;;;16.80;96676.00;;;;5049454;28;20239;-70
2023/09/12 05:18:31;;;;;;;21.40;19.17;;;;;16.90;96675.00;;;;5048446;28;20228;-70
2023/09/12 05:21:20;;;;;;;23.87;19.93;;;;;17.30;96680.00;;;;5046441;28;20235;-70
2023/09/12 05:24:11;;;;;;;22.03;18.07;;;;;17.00;96675.00;;;;5044243;28;20216;-70
2023/09/12 05:27:01;;;;;;;23.73;19.33;;;;;17.00;96682.00;;;;5047318;28;20211;-69
2023/09/12 05:29:50;;;;;;;20.17;18.00;;;;;17.10;96689.00;;;;5048627;28;20193;-69
2023/09/12 05:32:39;;;;;;;21.03;16.63;;;;;17.10;96692.00;;;;5050119;28;20657;-69
2023/09/12 05:35:28;;;;;;;24.03;16.93;;;;;17.30;96692.00;;;;5046621;28;20196;-70
2023/09/12 05:38:17;;;;;;;16.70;14.97;;;;;17.20;96691.00;;;;5045124;28;20666;-70
2023/09/12 05:41:07;;;;;;;19.13;16.73;;;;;16.90;96694.00;;;;5047106;28;20220;-69
2023/09/12 05:43:57;;;;;;;18.43;16.63;;;;;17.10;96687.00;;;;5046432;28;20681;-70
2023/09/12 05:46:46;;;;;;;23.90;17.30;;;;;17.40;96691.00;;;;5045662;28;20211;-70
2023/09/12 05:49:35;;;;;;;17.63;15.23;;;;;16.90;96691.00;;;;5048208;28;20205;-70
2023/09/12 05:52:24;;;;;;;25.23;16.90;;;;;17.40;96689.00;;;;5047977;28;20244;-71
2023/09/12 05:55:14;;;;;;;16.47;13.90;;;;;17.30;96694.00;;;;5042824;28;20653;-69
2023/09/12 05:58:05;;;;;;;21.60;17.20;;;;;17.60;96684.00;;;;5048997;28;20215;-70
2023/09/12 06:00:55;;;;;;;20.33;15.70;;;;;17.80;96676.00;;;;5045993;28;20232;-70
2023/09/12 06:03:44;;;;;;;16.83;14.87;;;;;18.20;96687.00;;;;5050984;28;20282;-70
2023/09/12 06:06:34;;;;;;;17.70;15.37;;;;;18.10;96685.00;;;;5049957;28;20228;-69
2023/09/12 06:09:23;;;;;;;19.00;16.23;;;;;18.40;96686.00;;;;5049252;28;20197;-70
2023/09/12 06:12:12;;;;;;;18.87;15.17;;;;;17.80;96686.00;;;;5045549;28;20225;-70
2023/09/12 06:15:01;;;;;;;19.10;15.07;;;;;18.40;96681.00;;;;5047549;28;20209;-70
2023/09/12 06:17:51;;;;;;;15.40;13.37;;;;;18.20;96683.00;;;;5046662;28;20207;-70
2023/09/12 06:20:40;;;;;;;16.40;13.80;;;;;18.40;96680.00;;;;5047577;28;20240;-70
2023/09/12 06:23:30;;;;;;;19.33;14.60;;;;;18.70;96684.00;;;;5048549;28;20275;-70
2023/09/12 06:26:18;;;;;;;17.27;14.77;;;;;18.50;96680.00;;;;5044973;28;20201;-70
2023/09/12 06:29:08;;;;;;;20.10;14.67;;;;;18.70;96683.00;;;;5049484;28;20201;-70
2023/09/12 06:31:57;;;;;;;19.70;14.00;;;;;19.30;96683.00;;;;5049246;28;20228;-71
2023/09/12 06:34:48;;;;;;;15.73;13.90;;;;;19.50;96675.00;;;;5050888;28;20212;-70
2023/09/12 06:37:37;;;;;;;21.10;15.00;;;;;19.90;96679.00;;;;5049296;28;20203;-71
2023/09/12 06:40:26;;;;;;;15.50;12.90;;;;;20.00;96677.00;;;;5048411;28;20228;-70
2023/09/12 06:43:15;;;;;;;18.40;14.37;;;;;20.20;96676.00;;;;5052966;28;20200;-71
2023/09/12 06:46:04;;;;;;;18.03;13.70;;;;;20.50;96676.00;;;;5048815;28;20208;-70
2023/09/12 06:48:53;;;;;;;18.03;11.53;;;;;20.50;96676.00;;;;5047491;28;20204;-71
2023/09/12 06:51:43;;;;;;;22.83;13.47;;;;;20.70;96676.00;;;;5048480;28;20587;-70
2023/09/12 06:54:34;;;;;;;15.83;12.90;;;;;20.60;96672.00;;;;5048008;28;20686;-70
2023/09/12 06:57:23;;;;;;;14.40;12.07;;;;;20.70;96670.00;;;;5045925;28;20205;-70
2023/09/12 07:03:01;;;;;;;21.07;14.13;;;;;21.50;96669.00;;;;4991082;28;20677;-84
2023/09/12 07:05:50;;;;;;;16.27;12.97;;;;;21.30;96674.00;;;;4990921;28;20209;-85
2023/09/12 07:08:41;;;;;;;16.47;13.00;;;;;21.70;96670.00;;;;4996684;28;20226;-85
2023/09/12 07:11:30;;;;;;;13.57;11.67;;;;;21.60;96667.00;;;;4991948;28;20202;-84
2023/09/12 07:14:19;;;;;;;20.00;11.63;;;;;21.70;96670.00;;;;4990304;28;20210;-85
2023/09/12 07:17:08;;;;;;;18.83;11.23;;;;;21.90;96674.00;;;;4997600;28;20500;-85
2023/09/12 07:19:57;;;;;;;14.13;10.77;;;;;22.40;96676.00;;;;4990864;28;20600;-84
2023/09/12 07:22:46;;;;;;;15.33;11.37;;;;;22.30;96669.00;;;;4995514;28;20198;-86
2023/09/12 07:25:40;;;;;;;15.03;12.53;;;;;22.40;96668.00;;;;4997819;28;20587;-85
2023/09/12 07:28:30;;;;;;;17.90;12.57;;;;;22.90;96670.00;;;;4992641;28;20218;-85
2023/09/12 07:31:19;;;;;;;16.43;10.60;;;;;23.00;96674.00;;;;4996068;28;20217;-85
2023/09/12 07:34:09;;;;;;;13.57;11.70;;;;;23.20;96680.00;;;;4994936;28;20202;-84
2023/09/12 07:36:58;;;;;;;17.80;11.23;;;;;23.40;96676.00;;;;4995683;28;20233;-85
2023/09/12 07:39:47;;;;;;;14.23;11.57;;;;;23.70;96672.00;;;;4992890;28;20233;-84
2023/09/12 07:42:37;;;;;;;15.77;10.90;;;;;24.00;96679.00;;;;4995216;28;20216;-85
2023/09/12 07:45:27;;;;;;;14.40;11.13;;;;;24.00;96675.00;;;;4999530;28;20206;-85
2023/09/12 07:48:16;;;;;;;16.40;11.37;;;;;24.10;96681.00;;;;4995827;28;20234;-87
2023/09/12 07:51:14;;;;;;;14.20;11.83;;;;;24.10;96682.00;;;;4995551;28;20206;-85
2023/09/12 07:54:03;;;;;;;15.73;10.63;;;;;24.40;96682.00;;;;4995094;28;20673;-85
2023/09/12 07:56:52;;;;;;;12.43;10.53;;;;;24.80;96681.00;;;;4997078;28;20719;-85
2023/09/12 07:59:43;;;;;;;15.23;10.17;;;;;25.10;96682.00;;;;4994214;28;20233;-85
2023/09/12 08:02:32;;;;;;;11.87;10.03;;;;;25.00;96687.00;;;;4991633;28;20668;-85
2023/09/12 08:05:21;;;;;;;15.97;9.77;;;;;25.70;96689.00;;;;4992762;28;20207;-83
2023/09/12 08:08:10;;;;;;;13.10;10.60;;;;;25.70;96692.00;;;;4992331;28;20230;-84
2023/09/12 08:10:59;;;;;;;16.33;10.23;;;;;25.60;96686.00;;;;4992688;28;20211;-84
2023/09/12 08:13:50;;;;;;;13.03;10.60;;;;;26.10;96687.00;;;;4992632;28;20202;-84
2023/09/12 08:16:41;;;;;;;17.90;10.63;;;;;25.90;96688.00;;;;4992788;28;20222;-84
2023/09/12 08:19:29;;;;;;;19.47;10.10;;;;;26.10;96689.00;;;;4992129;28;20210;-84
2023/09/12 08:22:19;;;;;;;10.07;8.57;;;;;26.50;96697.00;;;;4991449;28;20210;-85
2023/09/12 08:25:09;;;;;;;14.97;9.37;;;;;26.70;96698.00;;;;4997074;28;20699;-84
2023/09/12 08:27:59;;;;;;;16.50;10.57;;;;;26.80;96694.00;;;;4997265;28;20226;-84
2023/09/12 08:30:49;;;;;;;15.97;9.13;;;;;26.90;96703.00;;;;4992418;28;20202;-84
2023/09/12 08:33:39;;;;;;;10.97;8.97;;;;;26.90;96709.00;;;;4992009;28;20211;-84
2023/09/12 08:36:29;;;;;;;13.87;10.07;;;;;27.20;96706.00;;;;4992488;28;20206;-84
2023/09/12 08:39:19;;;;;;;18.50;11.70;;;;;27.30;96705.00;;;;4990885;28;20209;-84
2023/09/12 08:42:08;;;;;;;13.03;9.13;;;;;27.40;96706.00;;;;4995112;28;20203;-84
2023/09/12 08:44:58;;;;;;;24.03;10.53;;;;;27.50;96702.00;;;;4993456;28;20779;-83
2023/09/12 08:47:53;;;;;;;11.63;9.33;;;;;27.80;96703.00;;;;5021976;22;20227;-88
2023/09/12 08:50:44;;;;;;;10.67;8.20;;;;;27.80;96697.00;;;;5068418;28;20224;-88
2023/09/12 08:53:33;;;;;;;13.40;10.23;;;;;28.10;96701.00;;;;5067900;28;20196;-88
2023/09/12 08:56:22;;;;;;;9.47;8.10;;;;;28.20;96708.00;;;;5054892;28;20233;-87
2023/09/12 08:59:12;;;;;;;19.10;9.47;;;;;28.60;96707.00;;;;5048851;28;20222;-87
2023/09/12 09:02:02;;;;;;;11.97;9.50;;;;;28.70;96710.00;;;;5048762;28;20203;-87
2023/09/12 09:04:52;;;;;;;12.87;8.97;;;;;28.90;96706.00;;;;5049273;28;20213;-88
2023/09/12 09:07:43;;;;;;;12.43;9.83;;;;;29.10;96699.00;;;;5051166;28;20207;-88
2023/09/12 09:10:33;;;;;;;11.27;8.43;;;;;29.30;96708.00;;;;5056393;28;20228;-87
2023/09/12 09:13:25;;;;;;;11.33;8.53;;;;;29.50;96700.00;;;;5049390;28;20206;-88
2023/09/12 09:16:15;;;;;;;12.30;9.17;;;;;29.70;96699.00;;;;5052368;28;20302;-88
2023/09/12 09:19:09;;;;;;;13.37;8.97;;;;;29.60;96691.00;;;;5054193;28;20206;-88
2023/09/12 09:22:07;;;;;;;11.47;9.10;;;;;29.80;96693.00;;;;5050302;28;20291;-88
2023/09/12 09:25:12;;;;;;;12.10;9.13;;;;;29.60;96700.00;;;;5049167;28;20233;-88
2023/09/12 09:28:05;;;;;;;11.23;9.00;;;;;29.60;96694.00;;;;5049072;28;20197;-87
2023/09/12 09:30:54;;;;;;;10.97;8.67;;;;;30.00;96697.00;;;;5049501;28;20233;-89
2023/09/12 09:33:48;;;;;;;12.47;9.70;;;;;30.00;96699.00;;;;5047946;28;20201;-88
2023/09/12 09:36:37;;;;;;;11.90;9.40;;;;;30.10;96693.00;;;;5052930;28;20232;-87
2023/09/12 09:39:28;;;;;;;10.23;9.23;;;;;30.30;96697.00;;;;5053452;28;20977;-87
2023/09/12 09:42:19;;;;;;;9.60;8.47;;;;;29.90;96688.00;;;;5048695;28;20208;-87
2023/09/12 09:45:09;;;;;;;10.23;8.77;;;;;30.30;96697.00;;;;5047618;28;20222;-88
2023/09/12 09:48:00;;;;;;;12.57;9.37;;;;;30.90;96689.00;;;;5050269;28;20219;-87
2023/09/12 09:50:49;;;;;;;10.30;8.30;;;;;31.00;96686.00;;;;5045926;28;20233;-88
2023/09/12 09:53:38;;;;;;;13.80;10.33;;;;;31.30;96684.00;;;;5052397;28;20218;-88
2023/09/12 09:56:27;;;;;;;11.20;10.10;;;;;31.40;96694.00;;;;5049270;28;20616;-88
2023/09/12 09:59:19;;;;;;;10.60;9.57;;;;;31.50;96681.00;;;;5047003;28;20210;-88
2023/09/12 10:02:12;;;;;;;11.73;9.40;;;;;31.60;96671.00;;;;5054126;28;20207;-88
2023/09/12 10:05:04;;;;;;;9.90;8.60;;;;;32.00;96673.00;;;;5044746;28;20225;-88
2023/09/12 10:07:54;;;;;;;11.83;8.80;;;;;32.10;96673.00;;;;5045958;28;20205;-88
2023/09/12 10:10:43;;;;;;;9.00;8.10;;;;;32.10;96670.00;;;;5045718;28;20233;-87
2023/09/12 10:13:34;;;;;;;11.73;9.70;;;;;32.10;96665.00;;;;5039506;28;20211;-89
2023/09/12 10:16:30;;;;;;;10.30;8.97;;;;;32.30;96663.00;;;;5040090;28;20227;-89
2023/09/12 10:19:21;;;;;;;9.53;8.23;;;;;32.80;96661.00;;;;5041267;28;20202;-88
2023/09/12 10:22:13;;;;;;;9.68;8.68;;;;;33.00;96656.00;;;;5040143;28;20205;-89
2023/09/12 10:25:03;;;;;;;9.57;7.90;;;;;33.00;96654.00;;;;5038417;28;20228;-88
2023/09/12 10:27:52;;;;;;;9.02;8.18;;;;;33.00;96653.00;;;;5042036;28;20241;-88
2023/09/12 10:30:41;;;;;;;9.75;7.50;;;;;32.10;96655.00;;;;5040945;28;20200;-87
2023/09/12 10:33:32;;;;;;;11.68;8.07;;;;;33.20;96659.00;;;;5040472;28;20212;-89
2023/09/12 10:36:22;;;;;;;10.77;8.38;;;;;33.50;96653.00;;;;5043611;28;20223;-91
2023/09/12 10:39:12;;;;;;;11.02;8.90;;;;;33.80;96649.00;;;;5052691;28;20221;-89
2023/09/12 10:42:01;;;;;;;11.50;9.50;;;;;34.10;96645.00;;;;5050433;28;20200;-90
2023/09/12 10:44:51;;;;;;;9.90;8.88;;;;;34.00;96651.00;;;;5046908;28;20211;-90
2023/09/12 10:47:40;;;;;;;11.02;9.18;;;;;34.30;96649.00;;;;5048138;28;21120;-89
2023/09/12 10:50:32;;;;;;;9.82;8.77;;;;;34.30;96643.00;;;;5049723;28;20237;-90
2023/09/12 10:53:25;;;;;;;10.10;9.10;;;;;34.50;96637.00;;;;5049497;28;20199;-89
2023/09/12 10:56:19;;;;;;;12.75;8.48;;;;;34.10;96640.00;;;;5045782;28;20227;-86
2023/09/12 10:59:14;;;;;;;13.77;9.40;;;;;34.30;96644.00;;;;5045109;28;20211;-87
2023/09/12 11:02:30;;;;;;;10.68;8.98;;;;;34.20;96639.00;;;;5043406;28;20718;-87
2023/09/12 11:05:57;;;;;;;18.08;10.13;;;31.50;92.10;34.40;96636.00;;;;5042159;28;20774;-89
2023/09/12 11:08:46;;;;;;;10.90;8.98;;;31.40;91.50;34.90;96634.00;;;;5024262;28;20225;-87
2023/09/12 11:11:34;;;;;;;9.90;8.88;;;31.60;92.10;35.60;96640.00;;;;5055582;28;20270;-88
2023/09/12 11:14:24;;;;;;;13.38;9.23;;;31.80;91.90;35.70;96641.00;;;;5054693;22;20822;-87
2023/09/12 11:17:25;;;;;;;10.30;8.68;;;32.10;91.40;36.10;96628.00;;;;5055163;28;20616;-89
2023/09/12 11:20:15;;;;;;;8.85;7.60;;;32.40;90.40;35.50;96629.00;;;;5045476;28;20200;-86
2023/09/12 11:23:12;;;;;;;11.15;7.78;;;32.60;87.70;35.70;96625.00;;;;5048751;28;20252;-87
2023/09/12 11:26:11;;;;;;;9.15;8.27;;;32.60;85.40;35.80;96626.00;;;;5029143;28;20209;-89
2023/09/12 11:29:12;;;;;;;11.90;9.32;;;32.80;86.10;35.80;96632.00;;;;5028268;28;20201;-89
2023/09/12 11:32:02;;;;;;;10.65;8.73;;;32.80;84.20;34.40;96631.00;;;;5028573;28;20686;-88
2023/09/12 11:34:54;;;;;;;11.55;8.45;;;32.70;81.90;35.80;96620.00;;;;5031904;28;20225;-90
2023/09/12 11:37:50;;;;;;;9.45;8.45;;;32.60;83.30;36.30;96627.00;;;;5026965;28;20654;-90
2023/09/12 11:40:46;;;;;;;10.63;8.45;;;32.70;82.40;36.30;96631.00;;;;5030528;28;20223;-89
2023/09/12 11:43:39;;;;;;;10.00;8.15;;;32.90;82.20;36.40;96631.00;;;;5029473;28;20229;-89
2023/09/12 11:46:28;;;;;;;10.27;8.52;;;33.00;82.20;35.60;96619.00;;;;5030206;28;20212;-89
2023/09/12 11:49:18;;;;;;;9.27;7.68;;;33.10;80.90;36.90;96618.00;;;;5031252;28;20212;-86
2023/09/12 11:52:12;;;;;;;11.02;9.20;;;33.30;80.70;36.30;96619.00;;;;5027579;28;20718;-89
2023/09/12 11:55:01;;;;;;;12.73;8.88;;;33.40;80.60;36.40;96610.00;;;;5028250;28;20240;-86
2023/09/12 11:57:51;;;;;;;9.32;8.40;;;33.40;80.60;35.40;96616.00;;;;5029448;28;20189;-86
2023/09/12 12:00:46;;;;;;;10.23;8.80;;;33.30;79.00;36.40;96608.00;;;;5030847;28;20219;-88
2023/09/12 12:03:35;;;;;;;13.50;8.52;;;33.30;80.30;37.00;96605.00;;;;5028014;28;20796;-87
2023/09/12 12:06:23;;;;;;;34.08;24.08;;;33.40;78.70;38.10;96601.00;;;;5028485;28;20201;-87
2023/09/12 12:09:13;;;;;;;18.80;15.75;;;33.80;80.10;38.40;96611.00;;;;5036423;28;20207;-87
2023/09/12 12:12:10;;;;;;;59.10;41.03;;;34.20;78.90;38.70;96610.00;;;;5029424;28;20597;-87
2023/09/12 12:15:00;;;;;;;14.98;10.13;;;34.60;77.10;37.60;96608.00;;;;5027059;28;20237;-85
2023/09/12 12:17:49;;;;;;;13.07;8.82;;;34.80;73.50;36.70;96608.00;;;;5030187;28;20573;-85
2023/09/12 12:20:38;;;;;;;11.63;9.85;;;34.80;72.60;36.30;96597.00;;;;5026684;28;20202;-84
2023/09/12 12:23:28;;;;;;;10.82;7.63;;;34.40;71.30;37.90;96602.00;;;;5020175;28;20802;-84
2023/09/12 12:26:17;;;;;;;12.02;10.68;;;34.40;73.70;38.20;96604.00;;;;5023923;28;20208;-85
2023/09/12 12:29:06;;;;;;;10.90;9.80;;;34.50;73.30;38.40;96598.00;;;;5026542;28;20197;-85
2023/09/12 12:32:01;;;;;;;9.23;8.13;;;34.70;72.80;38.70;96601.00;;;;5015282;28;20703;-85
2023/09/12 12:34:50;;;;;;;10.20;8.38;;;35.00;72.30;37.60;96596.00;;;;5017251;28;20217;-85
2023/09/12 12:37:39;;;;;;;9.07;8.10;;;35.20;69.50;36.90;96606.00;;;;5018134;28;20674;-85
2023/09/12 12:40:28;;;;;;;8.80;7.95;;;34.90;68.50;36.60;96589.00;;;;5017554;28;20208;-85
2023/09/12 12:43:23;;;;;;;9.10;8.18;;;34.70;67.30;37.30;96585.00;;;;5012709;28;20760;-85
2023/09/12 12:46:13;;;;;;;10.50;8.20;;;34.40;68.80;38.90;96582.00;;;;5017474;28;20211;-85
2023/09/12 12:49:06;;;;;;;8.80;7.88;;;34.70;69.20;39.20;96597.00;;;;5012047;28;20247;-85
2023/09/12 12:51:58;;;;;;;8.38;7.57;;;35.00;68.90;37.30;96599.00;;;;5018010;28;20909;-85
2023/09/12 12:54:46;;;;;;;8.05;7.28;;;35.00;64.90;38.50;96587.00;;;;5017377;28;20228;-85
2023/09/12 12:57:38;;;;;;;8.38;7.63;;;34.90;66.60;38.80;96593.00;;;;5014439;28;20255;-85
2023/09/12 13:00:29;;;;;;;8.75;6.82;;;35.20;66.80;38.30;96601.00;;;;5018121;28;20213;-85
2023/09/12 13:03:18;;;;;;;8.65;7.80;;;35.20;66.10;38.20;96597.00;;;;5012867;28;20231;-85
2023/09/12 13:06:13;;;;;;;8.38;7.40;;;35.30;64.80;37.40;96595.00;;;;5014134;28;20228;-85
2023/09/12 13:09:04;;;;;;;9.30;7.82;;;35.20;63.90;38.50;96597.00;;;;5013531;28;20244;-85
2023/09/12 13:11:53;;;;;;;9.98;7.60;;;35.10;65.20;38.60;96589.00;;;;5012882;28;20206;-85
2023/09/12 13:14:42;;;;;;;8.50;7.68;;;35.20;66.60;37.50;96590.00;;;;5016098;28;20619;-85
2023/09/12 13:17:31;;;;;;;10.88;7.40;;;35.30;63.60;37.10;96576.00;;;;5021499;28;20214;-85
2023/09/12 13:20:21;;;;;;;9.80;7.68;;;34.80;63.80;37.10;96596.00;;;;5013445;28;20233;-84
2023/09/12 13:23:11;;;;;;;9.07;8.13;;;34.70;63.60;37.00;96603.00;;;;5008971;28;21859;-84
2023/09/12 13:25:59;;;;;;;9.43;8.45;;;34.40;66.30;37.60;96598.00;;;;5014028;28;21408;-84
2023/09/12 13:28:48;;;;;;;8.75;7.95;;;34.40;67.10;38.30;96595.00;;;;5017322;28;20591;-85
2023/09/12 13:31:37;;;;;;;9.68;7.93;;;34.60;68.30;38.10;96579.00;;;;5017941;28;20202;-84
2023/09/12 13:34:26;;;;;;;11.77;8.65;;;34.80;66.80;38.50;96588.00;;;;5013009;28;20241;-85
2023/09/12 13:37:16;;;;;;;9.52;8.45;;;35.00;66.20;39.00;96583.00;;;;5018306;28;20217;-85
2023/09/12 13:40:08;;;;;;;9.30;7.95;;;35.10;66.40;37.90;96585.00;;;;5013288;28;20219;-85